Time;durP1;ratioP1;P1;durP2;ratioP2;P2;SDS_P1;SDS_P2;PMS_P1;PMS_P2;Temp;Humidity;BMP_temperature;BMP_pressure;BME280_temperature;BME280_humidity;BME280_pressure;Samples;Min_cycle;Max_cycle;Signal;HPM_P1;HPM_P2
2022/07/21 00:00:22;;;;;;;13.13;8.80;;;;;;;23.43;48.21;100999.91;4920244;28;20102;-84
2022/07/21 00:02:50;;;;;;;10.25;8.98;;;;;;;23.39;48.35;100966.31;4926150;28;20053;-85
2022/07/21 00:05:17;;;;;;;11.20;8.68;;;;;;;23.37;48.51;100964.69;4921459;28;20051;-84
2022/07/21 00:07:47;;;;;;;10.88;8.52;;;;;;;23.35;48.87;100962.09;4941912;28;20051;-86
2022/07/21 00:10:15;;;;;;;12.65;8.70;;;;;;;23.37;49.36;100959.34;4914341;28;20114;-85
2022/07/21 00:12:42;;;;;;;9.40;8.27;;;;;;;23.35;48.94;100950.53;4919709;28;20134;-85
2022/07/21 00:15:10;;;;;;;11.15;8.77;;;;;;;23.35;49.49;100927.38;4937822;28;20035;-83
2022/07/21 00:17:37;;;;;;;8.35;7.55;;;;;;;23.32;49.90;100929.38;4936837;28;20105;-83
2022/07/21 00:20:09;;;;;;;9.27;7.82;;;;;;;23.31;50.07;100932.97;4920147;28;20409;-85
2022/07/21 00:22:38;;;;;;;10.45;7.70;;;;;;;23.29;50.46;100922.38;4924736;28;20053;-86
2022/07/21 00:25:08;;;;;;;12.75;6.80;;;;;;;23.28;50.76;100912.66;4949182;28;20603;-86
2022/07/21 00:27:35;;;;;;;9.43;7.25;;;;;;;23.24;51.02;100925.31;4930293;28;20565;-85
2022/07/21 00:30:06;;;;;;;13.20;7.40;;;;;;;23.22;51.17;100932.56;4941972;28;20047;-85
2022/07/21 00:32:33;;;;;;;9.73;7.47;;;;;;;23.16;51.43;100930.25;4929748;28;20051;-85
2022/07/21 00:35:00;;;;;;;8.00;7.20;;;;;;;23.13;51.55;100922.41;4918010;28;20126;-84
2022/07/21 00:37:27;;;;;;;9.55;6.72;;;;;;;23.10;52.00;100911.88;4913289;28;20054;-86
2022/07/21 00:39:55;;;;;;;7.35;6.72;;;;;;;23.10;52.08;100922.53;4945250;28;20050;-85
2022/07/21 00:42:28;;;;;;;8.25;7.25;;;;;;;23.09;52.32;100915.50;4912401;28;20047;-83
2022/07/21 00:44:56;;;;;;;7.32;6.18;;;;;;;23.08;52.44;100924.47;4915119;28;20138;-84
2022/07/21 00:47:29;;;;;;;8.82;6.60;;;;;;;23.10;52.55;100933.22;4929408;28;20051;-85
2022/07/21 00:49:58;;;;;;;14.55;7.57;;;;;;;23.10;53.04;100949.25;4931775;28;20536;-85
2022/07/21 00:52:25;;;;;;;9.95;7.38;;;;;;;23.08;52.72;100952.00;4931383;28;20055;-85
2022/07/21 00:54:52;;;;;;;9.20;7.20;;;;;;;23.11;52.85;100967.00;4931599;29;21140;-84
2022/07/21 00:57:19;;;;;;;10.85;7.72;;;;;;;23.09;53.54;100972.44;4914267;28;20132;-86
2022/07/21 00:59:47;;;;;;;8.57;7.72;;;;;;;23.03;53.37;100969.25;4933780;29;20058;-85
2022/07/21 01:02:14;;;;;;;8.23;7.32;;;;;;;22.98;55.41;100976.66;4931441;29;20047;-85
2022/07/21 01:04:40;;;;;;;7.45;6.85;;;;;;;22.89;55.80;100972.69;4931123;29;20048;-84
2022/07/21 01:07:08;;;;;;;10.32;7.85;;;;;;;22.82;57.13;100960.66;4916743;29;20044;-81
2022/07/21 01:09:36;;;;;;;12.25;6.95;;;;;;;22.77;57.24;100964.41;4914311;29;20079;-84
2022/07/21 01:12:07;;;;;;;7.05;6.35;;;;;;;22.74;58.13;100964.59;4919013;29;20066;-84
2022/07/21 01:14:34;;;;;;;9.88;5.82;;;;;;;22.70;58.66;100970.19;4919138;29;20052;-85
2022/07/21 01:17:05;;;;;;;15.85;6.45;;;;;;;22.69;59.62;100955.13;4932133;29;20146;-84
2022/07/21 01:19:32;;;;;;;6.47;5.57;;;;;;;22.63;59.88;100949.19;4919932;29;20110;-84
2022/07/21 01:21:59;;;;;;;5.47;4.97;;;;;;;22.64;61.09;100952.69;4919830;29;20123;-84
2022/07/21 01:24:26;;;;;;;7.35;4.13;;;;;;;22.64;61.45;100952.69;4914701;29;20044;-83
2022/07/21 01:26:54;;;;;;;4.18;3.67;;;;;;;22.63;62.51;100954.50;4908939;29;20044;-83
2022/07/21 01:29:21;;;;;;;5.05;3.08;;;;;;;22.61;63.16;100955.53;4921250;29;20059;-83
2022/07/21 01:31:50;;;;;;;3.15;2.60;;;;;;;22.56;63.08;100945.09;4937474;29;20401;-85
2022/07/21 01:34:17;;;;;;;3.38;3.15;;;;;;;22.56;63.41;100934.44;4932298;29;21032;-84
2022/07/21 01:36:45;;;;;;;2.65;2.53;;;;;;;22.54;63.73;100930.13;4947500;28;20384;-83
2022/07/21 01:41:55;;;;;;;2.88;2.67;;;;;;;22.56;64.68;100909.56;4925099;29;20048;-84
2022/07/21 01:44:22;;;;;;;3.17;2.67;;;;;;;22.53;64.55;100894.59;4934772;28;20090;-83
2022/07/21 01:46:52;;;;;;;2.53;2.08;;;;;;;22.55;64.46;100889.19;4931030;29;20379;-85
2022/07/21 01:49:20;;;;;;;2.40;1.98;;;;;;;22.58;64.92;100910.34;4921182;29;20044;-86
2022/07/21 01:51:47;;;;;;;2.20;2.10;;;;;;;22.57;65.36;100932.66;4930983;28;20055;-84
2022/07/21 01:54:16;;;;;;;2.60;2.40;;;;;;;22.54;65.66;100930.13;4910597;28;20054;-84
2022/07/21 01:56:43;;;;;;;2.10;2.00;;;;;;;22.55;65.72;100913.19;4917505;28;20051;-83
2022/07/21 01:59:09;;;;;;;2.10;2.00;;;;;;;22.56;65.87;100874.91;4918164;28;20051;-84
2022/07/21 02:01:36;;;;;;;2.08;1.88;;;;;;;22.54;66.07;100866.09;4931877;28;20561;-83
2022/07/21 02:04:06;;;;;;;1.67;1.58;;;;;;;22.52;66.17;100855.53;4921584;28;20106;-84
2022/07/21 02:06:33;;;;;;;4.05;1.42;;;;;;;22.54;66.70;100874.09;4931591;28;20047;-84
2022/07/21 02:09:00;;;;;;;3.22;2.03;;;;;;;22.57;66.41;100909.50;4916541;29;20055;-86
2022/07/21 02:11:27;;;;;;;2.13;1.60;;;;;;;22.58;67.09;100913.00;4951867;28;20054;-85
2022/07/21 02:13:54;;;;;;;3.05;2.63;;;;;;;22.53;67.86;100877.72;4919751;29;20047;-83
2022/07/21 02:16:20;;;;;;;2.78;2.42;;;;;;;22.50;68.89;100880.56;4917452;28;20585;-84
2022/07/21 02:18:47;;;;;;;2.20;2.10;;;;;;;22.43;69.56;100904.06;4934159;28;20126;-84
2022/07/21 02:21:14;;;;;;;2.03;1.92;;;;;;;22.33;70.78;100918.81;4935286;28;20270;-84
2022/07/21 02:23:41;;;;;;;2.33;2.13;;;;;;;22.23;71.27;100921.13;4919347;29;20047;-86
2022/07/21 02:26:08;;;;;;;2.20;2.00;;;;;;;22.12;71.81;100911.00;4924743;28;20106;-85
2022/07/21 02:28:34;;;;;;;2.95;2.03;;;;;;;22.07;71.83;100902.38;4934510;28;20047;-86
2022/07/21 02:31:01;;;;;;;3.45;2.00;;;;;;;22.03;72.56;100891.06;4939243;29;20125;-85
2022/07/21 02:33:28;;;;;;;2.83;2.50;;;;;;;22.02;73.68;100892.00;4935529;28;20078;-84
2022/07/21 02:35:54;;;;;;;4.40;3.00;;;;;;;22.01;75.15;100921.41;4931949;29;20052;-83
2022/07/21 02:38:21;;;;;;;3.55;2.90;;;;;;;21.91;74.71;100919.19;4924877;28;20109;-84
2022/07/21 02:40:48;;;;;;;2.70;2.50;;;;;;;21.89;76.92;100922.88;4934392;28;20047;-85
2022/07/21 02:43:14;;;;;;;4.63;3.22;;;;;;;21.81;77.75;100917.94;4934434;28;20073;-84
2022/07/21 02:45:43;;;;;;;4.53;3.30;;;;;;;21.72;79.00;100921.09;4933564;28;20106;-86
2022/07/21 02:48:13;;;;;;;3.97;3.67;;;;;;;21.66;79.99;100908.94;4933568;28;20551;-85
2022/07/21 02:50:44;;;;;;;3.90;3.55;;;;;;;21.61;80.62;100903.84;4934479;28;20047;-85
2022/07/21 02:53:19;;;;;;;5.38;3.53;;;;;;;21.59;81.64;100912.84;4931124;28;20051;-84
2022/07/21 02:55:47;;;;;;;6.55;4.50;;;;;;;21.49;81.15;100942.59;4916665;29;20066;-85
2022/07/21 02:58:27;;;;;;;4.70;4.20;;;;;;;21.42;81.78;100938.53;4932095;28;20446;-85
2022/07/21 03:01:05;;;;;;;5.38;4.82;;;;;;;21.36;82.01;100941.50;4930642;29;20390;-86
2022/07/21 03:03:35;;;;;;;5.85;5.28;;;;;;;21.34;82.72;100939.84;4916691;28;20624;-84
2022/07/21 03:06:04;;;;;;;5.22;4.75;;;;;;;21.31;83.14;100922.22;4919647;29;20094;-84
2022/07/21 03:08:30;;;;;;;6.55;5.57;;;;;;;21.26;83.72;100919.81;4934831;28;20051;-84
2022/07/21 03:10:57;;;;;;;6.78;5.00;;;;;;;21.22;83.57;100898.72;4919168;29;20055;-87
2022/07/21 03:13:24;;;;;;;6.20;5.60;;;;;;;21.23;84.28;100887.13;4918794;29;20146;-85
2022/07/21 03:15:51;;;;;;;8.70;5.78;;;;;;;21.20;84.29;100882.81;4935508;29;20058;-87
2022/07/21 03:18:18;;;;;;;6.82;5.68;;;;;;;21.20;84.72;100896.13;4934176;29;20043;-84
2022/07/21 03:20:45;;;;;;;6.20;5.60;;;;;;;21.17;84.64;100885.63;4935737;29;20047;-84
2022/07/21 03:23:12;;;;;;;9.45;6.70;;;;;;;21.18;84.96;100870.53;4935802;29;20055;-84
2022/07/21 03:25:39;;;;;;;9.13;7.65;;;;;;;21.19;85.51;100859.78;4936465;28;20051;-84
2022/07/21 03:28:06;;;;;;;9.63;8.73;;;;;;;21.23;85.41;100853.38;4923459;28;20507;-83
2022/07/21 03:30:33;;;;;;;10.25;7.93;;;;;;;21.28;84.82;100856.66;4933661;29;20049;-83
2022/07/21 03:33:00;;;;;;;10.75;9.00;;;;;;;21.29;85.13;100862.88;4919379;28;20050;-85
2022/07/21 03:35:27;;;;;;;8.35;7.57;;;;;;;21.32;84.79;100858.22;4935605;28;20043;-84
2022/07/21 03:37:57;;;;;;;12.35;9.38;;;;;;;21.34;85.56;100836.00;4919382;29;20521;-85
2022/07/21 03:40:27;;;;;;;14.00;10.43;;;;;;;21.34;85.71;100833.34;4920109;28;20050;-85
2022/07/21 03:42:57;;;;;;;12.13;9.60;;;;;;;21.32;85.26;100820.94;4919498;28;20051;-83
2022/07/21 03:45:25;;;;;;;11.30;9.23;;;;;;;21.32;84.64;100838.75;4954256;28;20367;-85
2022/07/21 03:47:53;;;;;;;13.65;9.48;;;;;;;21.35;83.50;100851.88;4942726;29;20462;-84
2022/07/21 03:50:19;;;;;;;9.82;8.52;;;;;;;21.37;82.56;100873.09;4923294;29;20630;-84
2022/07/21 03:52:47;;;;;;;13.45;10.63;;;;;;;21.44;81.66;100883.38;4941641;28;20051;-84
2022/07/21 03:55:17;;;;;;;11.80;9.50;;;;;;;21.48;80.91;100892.06;4934895;29;20062;-86
2022/07/21 03:58:00;;;;;;;12.15;9.73;;;;;;;21.49;81.31;100893.81;4932702;29;20122;-85
2022/07/21 04:00:30;;;;;;;11.90;10.57;;;;;;;21.47;81.57;100885.03;4935421;28;20336;-84
2022/07/21 04:02:58;;;;;;;13.60;9.85;;;;;;;21.40;82.45;100871.16;4955448;28;20378;-86
2022/07/21 04:05:27;;;;;;;15.23;10.52;;;;;;;21.35;83.51;100875.00;4939584;29;20086;-85
2022/07/21 04:07:54;;;;;;;14.50;10.68;;;;;;;21.29;85.69;100889.50;4919403;29;20050;-83
2022/07/21 04:10:25;;;;;;;13.90;10.50;;;;;;;21.17;86.55;100906.06;4936978;28;20047;-85
2022/07/21 04:12:52;;;;;;;12.55;10.68;;;;;;;21.04;88.27;100909.34;4921780;29;20082;-84
2022/07/21 04:15:20;;;;;;;13.63;11.00;;;;;;;21.00;89.21;100902.41;4939418;28;20119;-83
2022/07/21 04:17:48;;;;;;;13.05;10.68;;;;;;;20.96;90.71;100912.38;4936369;28;20061;-84
2022/07/21 04:20:16;;;;;;;13.95;10.48;;;;;;;20.93;91.14;100915.16;4919964;28;20219;-83
2022/07/21 04:22:47;;;;;;;15.10;10.38;;;;;;;20.88;91.38;100917.19;4932365;28;20054;-85
2022/07/21 04:25:15;;;;;;;11.40;10.00;;;;;;;20.88;91.19;100937.63;4934209;29;20130;-83
2022/07/21 04:27:43;;;;;;;11.55;10.35;;;;;;;20.86;92.59;100950.13;4948180;28;20416;-84
2022/07/21 04:30:13;;;;;;;12.18;10.38;;;;;;;20.73;93.38;100947.19;4933878;28;20396;-84
2022/07/21 04:32:40;;;;;;;12.07;10.13;;;;;;;20.69;93.85;100951.78;4938810;28;20051;-85
2022/07/21 04:35:08;;;;;;;14.18;10.63;;;;;;;20.64;93.85;100949.31;4941988;28;20051;-84
2022/07/21 04:37:36;;;;;;;14.45;10.38;;;;;;;20.68;94.12;100973.97;4924998;29;21035;-85
2022/07/21 04:40:08;;;;;;;14.00;10.40;;;;;;;20.71;93.64;100988.97;4924630;29;20055;-84
2022/07/21 04:42:36;;;;;;;12.55;10.68;;;;;;;20.72;93.97;100986.22;4936375;29;20043;-84
2022/07/21 04:45:05;;;;;;;11.07;9.80;;;;;;;20.71;93.95;100991.63;4941162;28;20129;-83
2022/07/21 04:47:31;;;;;;;12.90;10.55;;;;;;;20.64;94.42;100991.03;4954261;28;20043;-84
2022/07/21 04:50:01;;;;;;;11.20;9.80;;;;;;;20.58;95.21;100991.28;4936721;28;20046;-83
2022/07/21 04:52:28;;;;;;;11.65;10.02;;;;;;;20.55;95.24;101004.75;4935330;29;20293;-83
2022/07/21 04:54:54;;;;;;;9.52;8.60;;;;;;;20.54;95.70;101009.19;4899495;29;1072106;-84
2022/07/21 04:57:21;;;;;;;13.88;9.65;;;;;;;20.56;95.69;101011.75;4932133;28;20098;-83
2022/07/21 04:59:48;;;;;;;10.57;9.57;;;;;;;20.59;95.47;101004.50;4934445;29;20059;-84
2022/07/21 05:02:14;;;;;;;12.95;9.13;;;;;;;20.66;94.64;100998.00;4926460;29;20051;-84
2022/07/21 05:04:41;;;;;;;13.23;8.80;;;;;;;20.71;93.48;100994.28;4934502;29;20070;-84
2022/07/21 05:07:08;;;;;;;9.57;8.68;;;;;;;20.72;91.80;101004.84;4924873;28;20135;-84
2022/07/21 05:09:35;;;;;;;10.93;8.77;;;;;;;20.71;91.83;100995.13;4942150;29;20103;-82
2022/07/21 05:12:01;;;;;;;15.85;7.47;;;;;;;20.75;91.53;100998.53;4942096;28;20047;-83
2022/07/21 05:14:28;;;;;;;9.82;7.90;;;;;;;20.74;90.74;100987.03;4929258;28;20066;-84
2022/07/21 05:16:55;;;;;;;10.60;7.45;;;;;;;20.78;90.51;100993.06;4927915;28;20047;-84
2022/07/21 05:19:21;;;;;;;10.65;7.32;;;;;;;20.79;89.67;100986.81;4945450;28;20451;-84
2022/07/21 05:21:48;;;;;;;8.70;6.22;;;;;;;20.81;88.57;100984.94;4945399;28;20058;-84
2022/07/21 05:24:15;;;;;;;8.77;6.43;;;;;;;20.82;88.17;100978.69;4947440;28;20055;-83
2022/07/21 05:26:41;;;;;;;11.18;7.47;;;;;;;20.86;88.06;100984.72;4944563;29;20039;-83
2022/07/21 05:29:08;;;;;;;7.07;6.38;;;;;;;20.93;86.93;100984.34;4936641;28;20051;-84
2022/07/21 05:31:35;;;;;;;8.90;7.53;;;;;;;21.02;85.92;100987.53;4943190;28;20402;-83
2022/07/21 05:34:02;;;;;;;7.80;5.78;;;;;;;21.10;84.86;100991.53;4945170;29;20130;-85
2022/07/21 05:36:28;;;;;;;6.95;6.22;;;;;;;21.07;84.17;100983.72;4935300;29;20071;-83
2022/07/21 05:38:59;;;;;;;8.88;5.43;;;;;;;21.08;83.48;100988.09;4937168;28;20059;-83
2022/07/21 05:41:26;;;;;;;5.50;4.97;;;;;;;20.99;83.62;100993.88;4917300;28;20071;-83
2022/07/21 05:43:53;;;;;;;6.07;5.28;;;;;;;20.90;83.36;100991.63;4945294;29;20074;-84
2022/07/21 05:46:19;;;;;;;5.93;4.90;;;;;;;20.79;84.04;100997.44;4941251;28;20079;-84
2022/07/21 05:48:46;;;;;;;8.60;4.88;;;;;;;20.69;84.16;100996.13;4945758;28;20051;-82
2022/07/21 05:51:13;;;;;;;10.55;5.57;;;;;;;20.59;84.71;101004.50;4948350;29;20071;-83
2022/07/21 05:53:40;;;;;;;8.65;5.38;;;;;;;20.55;84.98;101010.91;4929067;29;20039;-81
2022/07/21 05:56:07;;;;;;;7.03;5.03;;;;;;;20.65;84.70;101019.34;4941095;28;20078;-84
2022/07/21 05:58:36;;;;;;;8.27;5.10;;;;;;;20.85;83.23;101022.94;4930905;28;20035;-83
2022/07/21 06:01:13;;;;;;;5.95;5.35;;;;;;;20.97;82.04;101031.19;4949447;29;20055;-83
2022/07/21 06:03:50;;;;;;;8.38;5.25;;;;;;;21.03;81.97;101027.38;4933881;28;20047;-84
2022/07/21 06:06:19;;;;;;;6.70;4.60;;;;;;;21.12;81.17;101031.41;4946371;28;20067;-83
2022/07/21 06:08:49;;;;;;;5.18;4.68;;;;;;;21.13;81.30;101027.81;4933978;28;20078;-83
2022/07/21 06:11:19;;;;;;;6.10;4.97;;;;;;;21.18;81.42;101033.78;4946155;29;20584;-84
2022/07/21 06:13:46;;;;;;;7.63;5.00;;;;;;;21.29;80.86;101031.47;4935026;28;20191;-83
2022/07/21 06:16:14;;;;;;;7.10;4.68;;;;;;;21.40;80.26;101038.94;4945071;28;20079;-85
2022/07/21 06:18:40;;;;;;;6.60;5.53;;;;;;;21.42;80.19;101041.50;4946766;28;20071;-84
2022/07/21 06:21:07;;;;;;;7.80;4.80;;;;;;;21.41;80.39;101040.66;4944030;28;20193;-82
2022/07/21 06:23:36;;;;;;;6.20;5.55;;;;;;;21.48;80.39;101042.09;4928298;29;20071;-84
2022/07/21 06:26:03;;;;;;;11.40;5.30;;;;;;;21.57;79.99;101046.13;4931620;28;20059;-85
2022/07/21 06:28:34;;;;;;;6.85;4.97;;;;;;;21.60;79.63;101043.34;4941523;29;20051;-84
2022/07/21 06:31:01;;;;;;;5.10;4.65;;;;;;;21.60;79.73;101058.44;4942743;28;20047;-83
2022/07/21 06:33:29;;;;;;;6.63;4.78;;;;;;;21.63;79.76;101061.81;4946186;29;20427;-82
2022/07/21 06:35:55;;;;;;;6.38;5.30;;;;;;;21.63;79.84;101064.50;4929206;29;20135;-82
2022/07/21 06:38:24;;;;;;;8.52;5.45;;;;;;;21.63;80.33;101072.47;4944266;28;20036;-83
2022/07/21 06:40:51;;;;;;;7.95;6.07;;;;;;;21.56;80.71;101065.75;4948659;29;20039;-83
2022/07/21 06:43:18;;;;;;;5.45;4.93;;;;;;;21.52;81.06;101061.44;4947891;29;20035;-84
2022/07/21 06:45:45;;;;;;;5.28;4.88;;;;;;;21.47;81.36;101060.81;4948039;29;20074;-83
2022/07/21 06:48:14;;;;;;;7.60;5.20;;;;;;;21.44;81.70;101056.47;4955976;28;20043;-84
2022/07/21 06:50:47;;;;;;;5.68;5.07;;;;;;;21.43;81.89;101057.44;4929041;29;20101;-84
2022/07/21 06:53:14;;;;;;;6.10;5.18;;;;;;;21.50;81.39;101055.34;4948801;28;20051;-83
2022/07/21 06:55:43;;;;;;;4.45;4.15;;;;;;;21.54;80.75;101058.72;4943767;29;20047;-82
2022/07/21 06:58:20;;;;;;;5.10;4.03;;;;;;;21.59;80.40;101062.91;4950588;29;20043;-82
2022/07/21 07:00:49;;;;;;;4.25;3.95;;;;;;;21.63;79.70;101067.16;4932522;29;20039;-82
2022/07/21 07:03:20;;;;;;;5.00;3.13;;;;;;;21.70;78.67;101061.53;4947856;28;20118;-82
2022/07/21 07:05:52;;;;;;;5.97;3.42;;;;;;;21.71;78.73;101048.13;4933783;29;20047;-83
2022/07/21 07:08:21;;;;;;;5.68;3.20;;;;;;;21.78;78.22;101054.91;4932759;29;20103;-82
2022/07/21 07:10:50;;;;;;;3.47;2.85;;;;;;;21.88;77.20;101057.09;4937997;29;20051;-81
2022/07/21 07:13:22;;;;;;;3.40;2.50;;;;;;;21.79;77.46;101056.59;4918531;28;20039;-83
2022/07/21 07:15:49;;;;;;;5.68;3.35;;;;;;;21.72;77.82;101057.84;4934810;29;20039;-84
2022/07/21 07:18:22;;;;;;;2.60;2.13;;;;;;;21.72;77.63;101063.19;4947264;28;20050;-84
2022/07/21 07:20:52;;;;;;;2.03;1.85;;;;;;;21.70;77.73;101061.53;4927799;29;20287;-83
2022/07/21 07:23:19;;;;;;;2.17;2.03;;;;;;;21.63;77.95;101064.50;4944769;28;20055;-81
2022/07/21 07:25:50;;;;;;;1.92;1.40;;;;;;;21.57;78.19;101069.25;4935030;28;20054;-83
2022/07/21 07:28:18;;;;;;;3.22;1.63;;;;;;;21.47;78.67;101067.00;4949479;28;20046;-83
2022/07/21 07:30:49;;;;;;;1.77;1.67;;;;;;;21.43;78.80;101068.09;4952896;28;20047;-81
2022/07/21 07:33:16;;;;;;;2.10;1.95;;;;;;;21.40;79.10;101070.03;4930665;29;20039;-82
2022/07/21 07:35:44;;;;;;;2.85;1.90;;;;;;;21.37;78.91;101070.16;4933182;29;20043;-82
2022/07/21 07:38:16;;;;;;;2.08;1.30;;;;;;;21.37;79.10;101071.06;4948331;28;20051;-83
2022/07/21 07:40:43;;;;;;;1.55;1.45;;;;;;;21.36;79.01;101079.97;4948352;29;20054;-82
2022/07/21 07:43:14;;;;;;;2.88;1.13;;;;;;;21.30;79.06;101088.25;4929651;28;20047;-83
2022/07/21 07:45:41;;;;;;;1.23;0.93;;;;;;;21.13;80.00;101084.59;4929975;29;20114;-81
2022/07/21 07:48:07;;;;;;;1.58;1.38;;;;;;;20.99;82.23;101095.00;4929711;29;20071;-83
2022/07/21 07:50:35;;;;;;;2.75;1.30;;;;;;;20.82;84.00;101091.31;4918318;29;20057;-83
2022/07/21 07:53:03;;;;;;;1.45;1.35;;;;;;;20.80;85.40;101092.31;4933984;29;20050;-83
2022/07/21 07:55:30;;;;;;;2.03;1.08;;;;;;;20.77;86.24;101097.78;4931498;28;20059;-82
2022/07/21 07:57:58;;;;;;;1.15;1.02;;;;;;;20.72;86.80;101097.13;4934621;29;20043;-84
2022/07/21 08:00:26;;;;;;;1.33;0.80;;;;;;;20.72;86.90;101105.94;4932075;29;20047;-81
2022/07/21 08:02:53;;;;;;;0.90;0.90;;;;;;;20.73;86.83;101107.69;4947083;28;20047;-84
2022/07/21 08:05:22;;;;;;;2.08;0.63;;;;;;;20.70;86.32;101107.78;4931125;28;20043;-81
2022/07/21 08:07:49;;;;;;;1.70;1.02;;;;;;;20.67;86.51;101119.41;4930123;29;20023;-81
2022/07/21 08:10:16;;;;;;;1.02;0.70;;;;;;;20.70;85.25;101115.78;4946126;28;20127;-83
2022/07/21 08:12:46;;;;;;;2.55;1.00;;;;;;;20.68;85.18;101120.28;4943186;29;20062;-84
2022/07/21 08:15:16;;;;;;;0.70;0.60;;;;;;;20.82;84.45;101119.72;4946184;28;20485;-84
2022/07/21 08:17:43;;;;;;;0.80;0.80;;;;;;;21.04;83.32;101108.09;4950438;29;20070;-82
2022/07/21 08:20:12;;;;;;;1.02;0.40;;;;;;;21.29;81.78;101110.50;4926531;29;20048;-83
2022/07/21 08:22:43;;;;;;;1.13;0.80;;;;;;;21.50;78.52;101121.94;4947019;28;20500;-82
2022/07/21 08:25:13;;;;;;;1.02;0.80;;;;;;;21.54;78.93;101122.66;4947007;29;20055;-82
2022/07/21 08:27:42;;;;;;;5.13;0.70;;;;;;;21.60;77.57;101117.94;4963794;28;20061;-82
2022/07/21 08:30:10;;;;;;;0.68;0.68;;;;;;;21.46;78.21;101123.03;4929703;28;20345;-82
2022/07/21 08:32:38;;;;;;;0.68;0.68;;;;;;;21.33;79.02;101130.72;4933506;28;20119;-81
2022/07/21 08:35:09;;;;;;;3.03;1.23;;;;;;;21.47;77.78;101133.59;4927470;28;20499;-84
2022/07/21 08:37:39;;;;;;;0.60;0.60;;;;;;;21.83;76.15;101125.75;4931015;29;20047;-82
2022/07/21 08:40:13;;;;;;;0.90;0.90;;;;;;;22.27;73.80;101128.00;4929539;29;20059;-84
2022/07/21 08:42:50;;;;;;;1.55;0.88;;;;;;;22.51;72.16;101120.56;4931665;29;20095;-84
2022/07/21 08:45:23;;;;;;;2.05;0.60;;;;;;;22.52;72.24;101111.63;4934634;29;20074;-83
2022/07/21 08:47:54;;;;;;;4.07;1.00;;;;;;;22.51;72.44;101114.38;4946282;29;20040;-82
2022/07/21 08:50:29;;;;;;;3.90;1.05;;;;;;;22.64;72.19;101115.47;4946924;28;20058;-82
2022/07/21 08:52:58;;;;;;;1.20;1.08;;;;;;;22.82;71.51;101118.97;4935863;29;20043;-83
2022/07/21 08:55:30;;;;;;;2.47;1.13;;;;;;;22.95;70.46;101127.19;4948771;28;20043;-81
2022/07/21 08:57:58;;;;;;;1.40;1.27;;;;;;;23.12;68.56;101124.47;4934184;28;20067;-84
2022/07/21 09:00:29;;;;;;;1.90;1.80;;;;;;;23.25;66.45;101124.69;4954894;28;20027;-85
2022/07/21 09:03:19;;;;;;;1.58;1.48;;;;;;;23.26;66.94;101125.56;4965780;28;20129;-84
2022/07/21 09:06:16;;;;;;;2.60;2.40;;;;;;;23.25;66.36;101123.84;4928385;29;20051;-83
2022/07/21 09:08:54;;;;;;;2.70;2.55;;;;;;;23.02;67.02;101123.22;4958005;28;20051;-83
2022/07/21 09:11:30;;;;;;;2.05;1.95;;;;;;;22.76;67.98;101117.50;4930684;28;20135;-84
2022/07/21 09:14:21;;;;;;;5.32;2.95;;;;;;;22.53;68.77;101121.38;4949941;28;20220;-81
2022/07/21 09:17:03;;;;;;;4.90;3.90;;;;;;;22.44;68.84;101122.69;4915698;29;20043;-82
2022/07/21 09:19:35;;;;;;;7.75;5.53;;;;;;;22.23;69.45;101121.97;4938787;28;20062;-83
2022/07/21 09:22:07;;;;;;;7.38;5.90;;;;;;;22.04;70.36;101124.69;4953052;28;20058;-85
2022/07/21 09:24:39;;;;;;;6.60;5.60;;;;;;;21.90;71.08;101132.50;4928080;28;20051;-84
2022/07/21 09:27:20;;;;;;;6.65;6.15;;;;;;;21.77;71.52;101129.56;4963854;28;20451;-83
2022/07/21 09:30:02;;;;;;;6.90;5.95;;;;;;;21.73;71.89;101127.97;4951095;28;20066;-82
2022/07/21 09:32:32;;;;;;;6.00;5.45;;;;;;;21.64;71.89;101129.28;4950982;29;20067;-84
2022/07/21 09:35:05;;;;;;;7.00;6.30;;;;;;;21.58;72.22;101133.13;4934209;29;20102;-84
2022/07/21 09:37:34;;;;;;;6.95;6.35;;;;;;;21.61;71.95;101129.44;4948429;29;20039;-82
2022/07/21 09:40:11;;;;;;;7.78;6.65;;;;;;;21.73;71.37;101130.66;4950222;29;20054;-84
2022/07/21 09:42:54;;;;;;;7.00;6.30;;;;;;;21.96;70.79;101138.38;4951128;29;20050;-83
2022/07/21 09:45:24;;;;;;;6.78;6.07;;;;;;;22.21;69.61;101133.66;4935507;28;20057;-85
2022/07/21 09:47:54;;;;;;;6.70;6.05;;;;;;;22.46;68.35;101131.50;4948829;29;20095;-82
2022/07/21 09:50:21;;;;;;;8.07;6.10;;;;;;;22.59;67.46;101139.72;4947110;28;20072;-83
2022/07/21 09:52:50;;;;;;;6.53;5.72;;;;;;;22.55;67.65;101134.63;4934091;28;20070;-82
2022/07/21 09:55:20;;;;;;;8.30;6.53;;;;;;;22.71;67.11;101135.56;4933769;28;20114;-84
2022/07/21 09:57:50;;;;;;;7.00;6.30;;;;;;;22.82;66.24;101131.47;4930418;29;20039;-83
2022/07/21 10:00:20;;;;;;;10.20;6.90;;;;;;;22.82;66.27;101128.81;4935495;29;20058;-84
2022/07/21 10:02:53;;;;;;;7.20;6.57;;;;;;;23.05;65.53;101128.44;4949819;28;20157;-85
2022/07/21 10:05:23;;;;;;;8.98;7.72;;;;;;;23.28;65.08;101131.66;4951593;28;20043;-83
2022/07/21 10:07:51;;;;;;;7.32;6.72;;;;;;;23.76;63.56;101129.03;4950742;29;20047;-84
2022/07/21 10:10:21;;;;;;;8.43;7.18;;;;;;;24.54;60.09;101128.09;4949980;29;20047;-83
2022/07/21 10:12:56;;;;;;;7.65;7.05;;;;;;;25.33;57.66;101132.19;4950426;29;20070;-84
2022/07/21 10:15:29;;;;;;;7.30;6.60;;;;;;;26.79;54.14;101122.59;4920790;28;20043;-87
2022/07/21 10:17:57;;;;;;;7.95;7.25;;;;;;;27.46;50.19;101111.56;4965689;28;20462;-81
2022/07/21 10:20:38;;;;;;;7.15;6.55;;;;;;;27.27;51.07;101124.59;4949020;28;20043;-82
2022/07/21 10:23:20;;;;;;;21.20;11.07;;;;;;;26.91;52.21;101122.59;4935440;29;20070;-81
2022/07/21 10:25:48;;;;;;;15.73;10.27;;;;;;;26.59;53.14;101116.78;4940718;29;20115;-82
2022/07/21 10:28:21;;;;;;;13.10;8.25;;;;;;;26.24;54.08;101112.00;4945151;29;20056;-82
2022/07/21 10:30:55;;;;;;;7.57;6.85;;;;;;;26.55;52.91;101117.97;4946850;29;20058;-82
2022/07/21 10:33:45;;;;;;;7.43;6.88;;;;;;;27.56;50.09;101109.03;4943419;29;20062;-82
2022/07/21 10:36:37;;;;;;;7.68;7.00;;;;;;;30.00;43.34;101102.63;4940528;28;20083;-81
2022/07/21 10:39:17;;;;;;;7.40;6.80;;;;;;;30.56;42.06;101109.59;4957310;28;20093;-82
2022/07/21 10:41:47;;;;;;;6.53;5.93;;;;;;;31.73;40.69;101095.63;4919789;29;20051;-80
2022/07/21 10:44:30;;;;;;;5.68;5.38;;;;;;;33.07;36.68;101089.41;4935302;29;20052;-81
2022/07/21 10:47:23;;;;;;;9.30;6.50;;;;;;;32.64;37.20;101091.69;4957983;28;20050;-83
2022/07/21 10:50:04;;;;;;;6.18;5.78;;;;;;;31.50;38.91;101095.88;4926525;28;20160;-82
2022/07/21 10:52:38;;;;;;;7.38;6.35;;;;;;;29.90;41.21;101094.44;4925368;28;20484;-83
2022/07/21 10:55:30;;;;;;;6.50;6.00;;;;;;;29.04;42.48;101102.31;4958686;28;20055;-84
2022/07/21 10:58:19;;;;;;;6.28;5.88;;;;;;;29.13;42.43;101098.03;4921840;29;20154;-82
2022/07/21 11:01:24;;;;;;;5.97;5.45;;;;;;;29.35;41.42;101087.22;4954215;28;20254;-82
2022/07/21 11:04:17;;;;;;;6.43;5.93;;;;;;;29.98;40.44;101078.44;4936363;29;20039;-81
2022/07/21 11:06:47;;;;;;;;;;;;;;;30.94;38.45;101074.78;4938545;28;20098;-82
2022/07/21 11:09:22;;;;;;;5.85;5.32;;;;;;;31.46;38.20;101074.63;4925129;29;19989;-82
2022/07/21 11:12:06;;;;;;;5.53;5.13;;;;;;;32.33;36.88;101068.41;4942553;29;20050;-82
2022/07/21 11:14:44;;;;;;;6.57;6.07;;;;;;;31.80;37.07;101064.31;4953410;28;20047;-82
2022/07/21 11:17:29;;;;;;;5.75;5.35;;;;;;;31.30;37.49;101053.53;4922213;28;20117;-83
2022/07/21 11:19:56;;;;;;;6.18;5.72;;;;;;;30.82;38.17;101058.66;4924044;29;20118;-83
2022/07/21 11:22:29;;;;;;;7.22;5.30;;;;;;;31.90;36.41;101063.44;4920172;28;20056;-85
2022/07/21 11:25:07;;;;;;;5.55;5.05;;;;;;;33.96;32.93;101060.69;4950142;28;20039;-83
2022/07/21 11:27:39;;;;;;;5.72;5.32;;;;;;;36.23;29.93;101057.41;4932860;29;20050;-83
2022/07/21 11:30:12;;;;;;;4.78;4.38;;;;;;;37.19;27.39;101057.47;4936386;28;20046;-82
2022/07/21 11:32:48;;;;;;;4.93;4.63;;;;;;;36.29;28.01;101055.91;4918939;28;20117;-83
2022/07/21 11:35:15;;;;;;;5.43;5.03;;;;;;;35.22;30.58;101056.66;4931137;29;20426;-82
2022/07/21 11:37:45;;;;;;;5.68;5.18;;;;;;;35.53;30.01;101047.91;4917639;29;20133;-82